Lyla — ZJL9491 — position and weather

sailwx.info

Track history (hours):
 
Tides and Currents Weather Stations Pressure Air Temp Water Temp Dewpoint Dewpoint Depression Visibility Wind Speed Wind Dir Waves Ship Positions

Lyla

Last reported at 2017-Sep-13 13:33 UTC. Time now 2017-Sep-21 17:38 UTC.
Position N 17°01' W 061°46'.
Warning: this ship's position is 8 days out of date.

Length 22 m.

Type: Sailing vessel. MMSI: 378112544.

Date/timePositionNaut miles runAvg speedWind from/ knotsBaromVisibWave heightAir tempDewpointWater temp
2017-Sep-13 13:33N 17°01' W 061°46'0 0.0
2017-Sep-13 13:30N 17°01' W 061°46'0 0.1
2017-Sep-13 13:00N 17°01' W 061°46'0 0.0
2017-Sep-12 16:39N 17°01' W 061°47'0 0.1
2017-Sep-12 16:30N 17°01' W 061°47'2 4.4
2017-Sep-12 16:00N 16°60' W 061°45'4 8.5
2017-Sep-12 15:30N 17°01' W 061°41'2 4.9
2017-Sep-12 15:00N 17°04' W 061°40'1 1.8
2017-Sep-12 14:30N 17°05' W 061°40'0 0.0
2017-Sep-11 17:53N 17°05' W 061°40'0 0.9
2017-Sep-11 17:30N 17°04' W 061°41'3 5.4
2017-Sep-11 17:00N 17°02' W 061°41'4 7.3
2017-Sep-11 16:30N 16°60' W 061°44'1 2.9
2017-Sep-11 16:00N 17°00' W 061°46'0 0.0
2017-Sep-11 15:30N 17°00' W 061°46'0 0.0
2017-Sep-11 15:00N 17°00' W 061°46'0 0.0
2017-Sep-11 14:30N 17°00' W 061°46'11 6.7
2017-Sep-11 12:53N 16°50' W 061°48'3 8.4
2017-Sep-11 12:30N 16°47' W 061°48'4 7.2
2017-Sep-11 12:00N 16°43' W 061°48'4 7.3
2017-Sep-11 11:29N 16°39' W 061°49'  
2017-Sep-03 15:28N 17°55' W 063°05'4 8.2
2017-Sep-03 14:59N 17°59' W 063°06'3 3.1
2017-Sep-03 13:58N 18°02' W 063°05'  
Track history (hours):
 
Tides and Currents Weather Stations Pressure Air Temp Water Temp Dewpoint Dewpoint Depression Visibility Wind Speed Wind Dir Waves Ship Positions

Lyla

Last reported at 2017-Sep-13 13:33 UTC. Time now 2017-Sep-21 17:38 UTC.
Position N 17°01' W 061°46'.
Warning: this ship's position is 8 days out of date.

Length 22 m.

Type: Sailing vessel. MMSI: 378112544.

Date/timePositionNaut miles runAvg speedWind from/ knotsBaromVisibWave heightAir tempDewpointWater temp
2017-Sep-13 13:33N 17°01' W 061°46'0 0.0
2017-Sep-13 13:30N 17°01' W 061°46'0 0.1
2017-Sep-13 13:00N 17°01' W 061°46'0 0.0
2017-Sep-12 16:39N 17°01' W 061°47'0 0.1
2017-Sep-12 16:30N 17°01' W 061°47'2 4.4
2017-Sep-12 16:00N 16°60' W 061°45'4 8.5
2017-Sep-12 15:30N 17°01' W 061°41'2 4.9
2017-Sep-12 15:00N 17°04' W 061°40'1 1.8
2017-Sep-12 14:30N 17°05' W 061°40'0 0.0
2017-Sep-11 17:53N 17°05' W 061°40'0 0.9
2017-Sep-11 17:30N 17°04' W 061°41'3 5.4
2017-Sep-11 17:00N 17°02' W 061°41'4 7.3
2017-Sep-11 16:30N 16°60' W 061°44'1 2.9
2017-Sep-11 16:00N 17°00' W 061°46'0 0.0
2017-Sep-11 15:30N 17°00' W 061°46'0 0.0
2017-Sep-11 15:00N 17°00' W 061°46'0 0.0
2017-Sep-11 14:30N 17°00' W 061°46'11 6.7
2017-Sep-11 12:53N 16°50' W 061°48'3 8.4
2017-Sep-11 12:30N 16°47' W 061°48'4 7.2
2017-Sep-11 12:00N 16°43' W 061°48'4 7.3
2017-Sep-11 11:29N 16°39' W 061°49'  
2017-Sep-03 15:28N 17°55' W 063°05'4 8.2
2017-Sep-03 14:59N 17°59' W 063°06'3 3.1
2017-Sep-03 13:58N 18°02' W 063°05'  

Dump ship's entire track history